createdAt,value
2018-07-19T00:00:46.661Z,99.90
2018-07-19T00:03:15.228Z,99.90
2018-07-19T00:05:43.669Z,99.90
2018-07-19T00:08:12.098Z,99.90
2018-07-19T00:10:40.501Z,99.90
2018-07-19T00:13:08.888Z,99.90
2018-07-19T00:15:37.408Z,99.90
2018-07-19T00:18:05.788Z,99.90
2018-07-19T00:20:34.336Z,99.90
2018-07-19T00:23:02.728Z,99.90
2018-07-19T00:25:31.764Z,99.90
2018-07-19T00:28:00.168Z,99.90
2018-07-19T00:30:28.660Z,99.90
2018-07-19T00:32:57.168Z,99.90
2018-07-19T00:35:25.576Z,99.90
2018-07-19T00:37:53.955Z,99.90
2018-07-19T00:40:22.367Z,99.90
2018-07-19T00:42:50.798Z,99.90
2018-07-19T00:45:19.233Z,99.90
2018-07-19T00:47:47.610Z,99.90
2018-07-19T00:50:16.078Z,99.90
2018-07-19T00:52:44.483Z,99.90
2018-07-19T00:55:12.901Z,99.90
2018-07-19T00:57:41.364Z,99.90
2018-07-19T01:00:09.840Z,99.90
2018-07-19T01:02:38.304Z,99.90
2018-07-19T01:05:06.890Z,99.90
2018-07-19T01:07:35.432Z,99.90
2018-07-19T01:10:03.990Z,99.90
2018-07-19T01:12:32.389Z,99.90
2018-07-19T01:15:00.800Z,99.90
2018-07-19T01:17:29.280Z,99.90
2018-07-19T01:19:57.680Z,99.90
2018-07-19T01:22:26.112Z,99.90
2018-07-19T01:24:54.526Z,99.90
2018-07-19T01:27:22.949Z,99.90
2018-07-19T01:29:51.387Z,99.90
2018-07-19T01:32:19.793Z,99.90
2018-07-19T01:34:48.240Z,99.90
2018-07-19T01:37:16.637Z,99.90
2018-07-19T01:39:45.064Z,99.90
2018-07-19T01:42:26.194Z,99.90
2018-07-19T01:44:54.587Z,99.90
2018-07-19T01:47:23.030Z,99.90
2018-07-19T01:49:51.462Z,99.90
2018-07-19T01:52:19.904Z,99.90
2018-07-19T01:54:48.466Z,99.90
2018-07-19T01:57:17.970Z,99.90
2018-07-19T01:59:47.014Z,99.90
2018-07-19T02:02:15.688Z,99.90
2018-07-19T02:04:44.107Z,99.90
2018-07-19T02:07:12.683Z,99.90
2018-07-19T02:09:41.348Z,99.90
2018-07-19T02:12:09.816Z,99.90
2018-07-19T02:14:38.280Z,99.90
2018-07-19T02:17:06.704Z,99.90
2018-07-19T02:22:03.252Z,99.90
2018-07-19T02:24:31.647Z,99.90
2018-07-19T02:27:00.063Z,99.90
2018-07-19T02:29:28.566Z,99.90
2018-07-19T02:31:56.952Z,99.90
2018-07-19T02:34:25.360Z,99.90
2018-07-19T02:36:53.761Z,99.90
2018-07-19T02:39:22.162Z,99.90
2018-07-19T02:41:50.580Z,99.90
2018-07-19T02:44:19.008Z,99.90
2018-07-19T02:46:47.435Z,99.90
2018-07-19T02:49:15.805Z,99.90
2018-07-19T02:51:44.383Z,99.90
2018-07-19T02:54:13.151Z,99.90
2018-07-19T02:56:41.692Z,99.90
2018-07-19T02:59:10.136Z,99.90
2018-07-19T03:01:38.528Z,99.90
2018-07-19T03:04:06.989Z,99.90
2018-07-19T03:06:35.473Z,99.90
2018-07-19T03:09:05.584Z,99.90
2018-07-19T03:11:34.021Z,99.90
2018-07-19T03:14:02.432Z,99.90
2018-07-19T03:16:30.863Z,99.90
2018-07-19T03:18:59.306Z,99.90
2018-07-19T03:21:27.719Z,99.90
2018-07-19T03:23:56.142Z,99.90
2018-07-19T03:26:24.655Z,99.90
2018-07-19T03:28:53.044Z,99.90
2018-07-19T03:31:21.465Z,99.90
2018-07-19T03:33:49.880Z,99.90
2018-07-19T03:36:18.284Z,99.90
2018-07-19T03:38:46.679Z,99.90
2018-07-19T03:41:15.082Z,99.90
2018-07-19T03:43:43.524Z,99.90
2018-07-19T03:46:11.963Z,99.90
2018-07-19T03:48:40.377Z,99.90
2018-07-19T03:51:08.801Z,99.90
2018-07-19T03:53:37.215Z,99.90
2018-07-19T03:56:06.021Z,99.90
2018-07-19T03:58:34.412Z,99.90
2018-07-19T04:01:02.875Z,99.90
2018-07-19T04:03:31.342Z,99.90
2018-07-19T04:05:59.720Z,99.90
2018-07-19T04:08:28.232Z,99.90
2018-07-19T04:10:56.674Z,99.90
2018-07-19T04:13:25.100Z,99.90
2018-07-19T04:15:53.527Z,99.90
2018-07-19T04:18:21.912Z,99.90
2018-07-19T04:20:50.388Z,99.90
2018-07-19T04:23:18.789Z,99.90
2018-07-19T04:25:47.212Z,99.90
2018-07-19T04:28:15.624Z,99.90
2018-07-19T04:30:44.040Z,99.90
2018-07-19T04:33:12.499Z,99.90
2018-07-19T04:35:41.004Z,99.90
2018-07-19T04:38:09.468Z,99.90
2018-07-19T04:40:37.824Z,99.90
2018-07-19T04:43:06.579Z,99.90
2018-07-19T04:45:34.972Z,99.90
2018-07-19T04:48:03.372Z,99.90
2018-07-19T04:50:31.861Z,99.90
2018-07-19T04:53:00.285Z,99.90
2018-07-19T04:55:28.705Z,99.90
2018-07-19T04:57:57.129Z,99.90
2018-07-19T05:00:25.824Z,99.90
2018-07-19T05:02:54.225Z,99.90
2018-07-19T05:05:22.696Z,99.90
2018-07-19T05:07:51.109Z,99.90
2018-07-19T05:10:19.529Z,99.90
2018-07-19T05:12:47.935Z,99.90
2018-07-19T05:15:16.390Z,99.90
2018-07-19T05:17:44.788Z,99.90
2018-07-19T05:20:13.200Z,99.90
2018-07-19T05:22:41.648Z,99.90
2018-07-19T05:25:10.111Z,99.90
2018-07-19T05:27:39.160Z,99.90
2018-07-19T05:30:07.599Z,99.90
2018-07-19T05:32:35.997Z,99.90
2018-07-19T05:35:04.412Z,99.90
2018-07-19T05:37:32.832Z,99.90
2018-07-19T05:40:01.313Z,99.90
2018-07-19T05:42:29.773Z,99.90
2018-07-19T05:44:58.176Z,99.90
2018-07-19T05:47:26.595Z,99.90
2018-07-19T05:49:55.071Z,99.90
2018-07-19T05:52:23.508Z,99.90
2018-07-19T05:54:51.940Z,99.90
2018-07-19T05:57:20.382Z,99.90
2018-07-19T05:59:48.813Z,99.90
2018-07-19T06:02:17.344Z,99.90
2018-07-19T06:04:45.767Z,99.90
2018-07-19T06:07:14.195Z,99.90
2018-07-19T06:09:42.654Z,99.90
2018-07-19T06:12:11.016Z,99.90
2018-07-19T06:17:07.621Z,99.90
2018-07-19T06:19:36.027Z,99.90
2018-07-19T06:22:04.556Z,99.90
2018-07-19T06:24:33.004Z,99.90
2018-07-19T06:27:01.478Z,99.90
2018-07-19T06:29:29.893Z,99.90
2018-07-19T06:31:58.366Z,99.90
2018-07-19T06:34:26.862Z,99.90
2018-07-19T06:36:55.570Z,99.90
2018-07-19T06:39:24.188Z,99.90
2018-07-19T06:41:52.597Z,99.90
2018-07-19T06:44:21.124Z,99.90
2018-07-19T06:46:49.594Z,99.90
2018-07-19T06:49:18.127Z,99.90
2018-07-19T06:51:46.541Z,99.90
2018-07-19T06:54:15.026Z,99.90
2018-07-19T06:56:43.415Z,99.90
2018-07-19T06:59:11.836Z,99.90
2018-07-19T07:01:40.287Z,99.90
2018-07-19T07:04:08.776Z,99.90
2018-07-19T07:06:37.317Z,99.90
2018-07-19T07:09:08.231Z,99.90
2018-07-19T07:11:36.706Z,99.90
2018-07-19T07:14:05.136Z,99.90
2018-07-19T07:16:33.620Z,99.90
2018-07-19T07:19:02.093Z,99.90
2018-07-19T07:21:30.597Z,99.90
2018-07-19T07:23:59.065Z,99.90
2018-07-19T07:26:27.508Z,99.90
2018-07-19T07:28:55.955Z,99.90
2018-07-19T07:31:24.480Z,99.90
2018-07-19T07:33:52.860Z,99.90
2018-07-19T07:36:21.407Z,99.90
2018-07-19T07:38:49.887Z,99.90
2018-07-19T07:41:18.233Z,99.90
2018-07-19T07:43:46.702Z,99.90
2018-07-19T07:46:15.113Z,99.90
2018-07-19T07:48:43.560Z,99.90
2018-07-19T07:51:11.968Z,99.90
2018-07-19T07:53:40.515Z,99.90
2018-07-19T07:56:08.948Z,99.90
2018-07-19T07:58:37.369Z,99.90
2018-07-19T08:01:05.849Z,99.90
2018-07-19T08:03:34.336Z,99.90
2018-07-19T08:06:02.908Z,99.90
2018-07-19T08:08:31.359Z,99.90
2018-07-19T08:10:59.820Z,99.90
2018-07-19T08:13:28.256Z,99.90
2018-07-19T08:15:56.706Z,99.90
2018-07-19T08:18:25.242Z,99.90
2018-07-19T08:20:53.648Z,99.90
2018-07-19T08:23:22.123Z,99.90
2018-07-19T08:25:50.528Z,99.90
2018-07-19T08:28:19.108Z,99.90
2018-07-19T08:30:47.875Z,99.90
2018-07-19T08:33:16.349Z,99.90
2018-07-19T08:35:44.816Z,99.90
2018-07-19T08:38:13.294Z,99.90
2018-07-19T08:40:41.729Z,99.90
2018-07-19T08:43:10.140Z,99.90
2018-07-19T08:45:38.720Z,99.90
2018-07-19T08:48:07.312Z,99.90
2018-07-19T08:50:35.783Z,99.80
2018-07-19T08:53:04.295Z,99.90
2018-07-19T08:55:32.727Z,99.40
2018-07-19T08:58:01.274Z,99.40
2018-07-19T09:00:29.740Z,99.90
2018-07-19T09:02:58.186Z,99.60
2018-07-19T09:05:26.772Z,99.90
2018-07-19T09:07:55.216Z,99.90
2018-07-19T09:10:23.710Z,99.90
2018-07-19T09:12:52.152Z,99.90
2018-07-19T09:15:20.577Z,99.90
2018-07-19T09:17:48.997Z,99.90
2018-07-19T09:20:17.522Z,99.90
2018-07-19T09:22:45.967Z,99.90
2018-07-19T09:25:14.392Z,99.90
2018-07-19T09:27:42.788Z,99.90
2018-07-19T09:30:11.305Z,99.90
2018-07-19T09:32:39.857Z,99.90
2018-07-19T09:35:08.268Z,99.60
2018-07-19T09:37:36.900Z,99.90
2018-07-19T09:40:05.653Z,98.40
2018-07-19T09:42:34.260Z,99.30
2018-07-19T09:45:02.709Z,99.00
2018-07-19T09:47:31.124Z,98.50
2018-07-19T09:49:59.519Z,98.70
2018-07-19T09:52:27.923Z,98.30
2018-07-19T09:54:59.463Z,99.10
2018-07-19T09:57:28.740Z,97.70
2018-07-19T09:59:57.198Z,97.40
2018-07-19T10:02:25.872Z,95.30
2018-07-19T10:04:54.687Z,94.30
2018-07-19T10:07:23.400Z,94.50
2018-07-19T10:09:51.867Z,93.90
2018-07-19T10:12:20.215Z,93.20
2018-07-19T10:14:49.130Z,94.30
2018-07-19T10:17:17.861Z,94.20
2018-07-19T10:19:46.252Z,94.80
2018-07-19T10:22:14.621Z,95.30
2018-07-19T10:24:43.207Z,94.90
2018-07-19T10:27:11.595Z,94.70
2018-07-19T10:29:40.170Z,95.90
2018-07-19T10:32:08.923Z,93.50
2018-07-19T10:34:37.226Z,94.60
2018-07-19T10:37:05.787Z,93.60
2018-07-19T10:39:34.167Z,93.90
2018-07-19T10:42:02.692Z,93.40
2018-07-19T10:44:31.088Z,92.40
2018-07-19T10:46:59.507Z,92.10
2018-07-19T10:49:27.899Z,91.90
2018-07-19T10:51:56.347Z,91.00
2018-07-19T10:54:24.835Z,93.20
2018-07-19T10:56:53.243Z,91.30
2018-07-19T10:59:22.264Z,90.90
2018-07-19T11:01:50.660Z,90.50
2018-07-19T11:04:19.050Z,90.30
2018-07-19T11:06:47.548Z,90.50
2018-07-19T11:09:15.985Z,90.40
2018-07-19T11:11:44.499Z,89.70
2018-07-19T11:14:12.918Z,89.20
2018-07-19T11:16:42.311Z,88.30
2018-07-19T11:19:10.842Z,86.10
2018-07-19T11:21:39.439Z,86.50
2018-07-19T11:24:07.935Z,86.50
2018-07-19T11:26:36.343Z,88.40
2018-07-19T11:29:04.761Z,89.20
2018-07-19T11:31:33.274Z,83.90
2018-07-19T11:34:01.884Z,87.40
2018-07-19T11:36:30.424Z,88.90
2018-07-19T11:38:58.842Z,88.00
2018-07-19T11:41:27.651Z,87.00
2018-07-19T11:43:56.094Z,86.50
2018-07-19T11:46:24.483Z,84.50
2018-07-19T11:48:52.909Z,84.30
2018-07-19T11:51:21.429Z,85.40
2018-07-19T11:53:49.920Z,83.80
2018-07-19T11:56:18.371Z,85.10
2018-07-19T11:58:46.780Z,84.90
2018-07-19T12:01:15.304Z,84.40
2018-07-19T12:03:43.736Z,86.60
2018-07-19T12:06:12.101Z,84.30
2018-07-19T12:08:40.518Z,84.60
2018-07-19T12:11:08.904Z,85.70
2018-07-19T12:13:37.377Z,86.80
2018-07-19T12:16:05.980Z,86.10
2018-07-19T12:18:34.352Z,85.30
2018-07-19T12:21:02.731Z,85.90
2018-07-19T12:23:31.081Z,87.10
2018-07-19T12:25:59.484Z,85.90
2018-07-19T12:28:27.984Z,85.70
2018-07-19T12:30:56.415Z,85.60
2018-07-19T12:33:24.827Z,84.90
2018-07-19T12:35:53.355Z,85.00
2018-07-19T12:38:21.784Z,86.80
2018-07-19T12:40:50.900Z,86.20
2018-07-19T12:43:19.311Z,86.00
2018-07-19T12:45:47.813Z,85.70
2018-07-19T12:48:16.200Z,85.00
2018-07-19T12:50:44.664Z,85.50
2018-07-19T12:53:13.060Z,82.40
2018-07-19T12:55:41.594Z,82.10
2018-07-19T12:58:09.977Z,82.80
2018-07-19T13:00:38.326Z,82.10
2018-07-19T13:03:06.847Z,82.10
2018-07-19T13:08:03.322Z,83.30
2018-07-19T13:10:31.708Z,83.50
2018-07-19T13:13:00.492Z,81.80
2018-07-19T13:15:30.472Z,83.60
2018-07-19T13:17:58.954Z,84.80
2018-07-19T13:20:27.385Z,83.80
2018-07-19T13:22:55.828Z,80.90
2018-07-19T13:25:24.248Z,81.60
2018-07-19T13:27:52.736Z,83.20
2018-07-19T13:30:21.383Z,82.70
2018-07-19T13:32:49.892Z,82.40
2018-07-19T13:35:18.347Z,81.70
2018-07-19T13:37:46.857Z,81.10
2018-07-19T13:40:15.448Z,81.90
2018-07-19T13:42:43.929Z,83.70
2018-07-19T13:45:12.412Z,80.50
2018-07-19T13:47:40.815Z,79.00
2018-07-19T13:50:09.284Z,77.60
2018-07-19T13:52:49.055Z,80.40
2018-07-19T13:55:17.480Z,79.30
2018-07-19T13:57:45.873Z,78.70
2018-07-19T14:00:14.308Z,77.80
2018-07-19T14:02:42.724Z,76.90
2018-07-19T14:05:11.140Z,78.70
2018-07-19T14:07:39.694Z,78.40
2018-07-19T14:10:08.098Z,76.40
2018-07-19T14:12:36.515Z,77.70
2018-07-19T14:15:05.438Z,75.00
2018-07-19T14:17:33.904Z,77.00
2018-07-19T14:20:02.396Z,75.00
2018-07-19T14:22:30.818Z,75.20
2018-07-19T14:24:59.264Z,76.40
2018-07-19T14:27:27.825Z,73.70
2018-07-19T14:29:56.194Z,74.60
2018-07-19T14:32:24.637Z,74.60
2018-07-19T14:34:53.213Z,74.00
2018-07-19T14:37:21.604Z,75.20
2018-07-19T14:39:50.031Z,74.60
2018-07-19T14:42:18.431Z,72.70
2018-07-19T14:44:46.792Z,72.90
2018-07-19T14:47:15.176Z,73.30
2018-07-19T14:49:43.585Z,74.20
2018-07-19T14:52:11.967Z,74.10
2018-07-19T14:54:40.416Z,72.70
2018-07-19T14:57:08.825Z,75.40
2018-07-19T14:59:37.404Z,73.00
2018-07-19T15:02:05.918Z,74.20
2018-07-19T15:04:34.369Z,73.30
2018-07-19T15:07:02.754Z,74.10
2018-07-19T15:09:31.179Z,72.70
2018-07-19T15:11:59.676Z,73.80
2018-07-19T15:14:28.120Z,72.40
2018-07-19T15:19:24.604Z,72.10
2018-07-19T15:21:53.087Z,72.90
2018-07-19T15:24:21.508Z,73.80
2018-07-19T15:26:49.949Z,73.40
2018-07-19T15:29:18.476Z,72.40
2018-07-19T15:31:46.880Z,74.80
2018-07-19T15:34:15.405Z,74.40
2018-07-19T15:36:43.819Z,73.10
2018-07-19T15:39:12.239Z,72.10
2018-07-19T15:41:40.624Z,71.90
2018-07-19T15:44:09.061Z,74.90
2018-07-19T15:46:37.460Z,73.30
2018-07-19T15:49:05.937Z,72.50
2018-07-19T15:51:34.385Z,72.20
2018-07-19T15:54:02.788Z,71.00
2018-07-19T15:56:31.164Z,73.30
2018-07-19T15:58:59.556Z,72.30
2018-07-19T16:01:27.991Z,72.60
2018-07-19T16:03:56.396Z,73.40
2018-07-19T16:06:24.808Z,73.80
2018-07-19T16:11:21.248Z,75.40
2018-07-19T16:13:49.806Z,74.90
2018-07-19T16:16:18.508Z,75.50
2018-07-19T16:18:46.893Z,75.10
2018-07-19T16:21:15.287Z,75.40
2018-07-19T16:23:43.676Z,74.40
2018-07-19T16:26:12.062Z,73.80
2018-07-19T16:28:40.744Z,74.00
2018-07-19T16:31:09.220Z,73.90
2018-07-19T16:36:05.877Z,73.80
2018-07-19T16:38:34.315Z,74.10
2018-07-19T16:41:02.705Z,75.90
2018-07-19T16:43:31.137Z,76.10
2018-07-19T16:45:59.559Z,74.50
2018-07-19T16:48:27.997Z,74.80
2018-07-19T16:50:56.494Z,74.00
2018-07-19T16:53:25.293Z,75.50
2018-07-19T16:55:53.880Z,75.00
2018-07-19T16:58:22.557Z,75.30
2018-07-19T17:00:50.925Z,74.30
2018-07-19T17:03:19.425Z,75.60
2018-07-19T17:05:47.980Z,74.90
2018-07-19T17:08:16.415Z,74.20
2018-07-19T17:10:44.865Z,75.00
2018-07-19T17:13:13.341Z,75.00
2018-07-19T17:15:41.791Z,74.30
2018-07-19T17:18:10.228Z,73.90
2018-07-19T17:20:38.689Z,73.50
2018-07-19T17:23:07.135Z,74.10
2018-07-19T17:25:35.694Z,73.60
2018-07-19T17:28:04.149Z,74.90
2018-07-19T17:30:32.636Z,74.20
2018-07-19T17:33:01.060Z,74.50
2018-07-19T17:35:29.519Z,74.50
2018-07-19T17:37:57.940Z,74.30
2018-07-19T17:40:26.545Z,74.80
2018-07-19T17:42:54.973Z,74.40
2018-07-19T17:45:23.408Z,73.90
2018-07-19T17:47:51.917Z,73.00
2018-07-19T17:50:20.300Z,72.20
2018-07-19T17:52:48.776Z,71.90
2018-07-19T17:55:17.270Z,72.20
2018-07-19T17:57:45.715Z,74.10
2018-07-19T18:00:14.175Z,72.20
2018-07-19T18:02:42.629Z,72.30
2018-07-19T18:05:11.148Z,71.70
2018-07-19T18:07:39.621Z,73.00
2018-07-19T18:10:08.214Z,72.70
2018-07-19T18:12:36.660Z,72.80
2018-07-19T18:15:05.812Z,72.90
2018-07-19T18:17:34.261Z,72.80
2018-07-19T18:20:02.856Z,73.30
2018-07-19T18:22:31.266Z,74.10
2018-07-19T18:24:59.696Z,75.00
2018-07-19T18:27:28.124Z,75.10
2018-07-19T18:29:56.582Z,76.30
2018-07-19T18:32:24.916Z,75.40
2018-07-19T18:34:53.371Z,75.70
2018-07-19T18:37:21.996Z,76.90
2018-07-19T18:39:50.540Z,78.00
2018-07-19T18:42:18.984Z,78.80
2018-07-19T18:44:47.457Z,79.40
2018-07-19T18:47:15.911Z,80.00
2018-07-19T18:49:44.449Z,81.40
2018-07-19T18:52:12.929Z,82.40
2018-07-19T18:54:41.379Z,82.20
2018-07-19T18:57:09.893Z,82.60
2018-07-19T18:59:38.384Z,83.20
2018-07-19T19:02:06.868Z,83.90
2018-07-19T19:04:35.357Z,84.70
2018-07-19T19:07:03.892Z,85.70
2018-07-19T19:09:32.424Z,84.60
2018-07-19T19:12:00.860Z,85.80
2018-07-19T19:14:29.364Z,87.30
2018-07-19T19:16:57.835Z,87.80
2018-07-19T19:19:26.413Z,88.50
2018-07-19T19:21:54.903Z,90.20
2018-07-19T19:24:23.264Z,89.30
2018-07-19T19:26:51.721Z,90.40
2018-07-19T19:29:20.653Z,90.80
2018-07-19T19:31:49.093Z,91.20
2018-07-19T19:34:17.722Z,91.30
2018-07-19T19:36:46.163Z,91.70
2018-07-19T19:39:14.697Z,91.80
2018-07-19T19:41:43.597Z,92.70
2018-07-19T19:44:12.616Z,93.70
2018-07-19T19:46:41.076Z,93.20
2018-07-19T19:49:09.513Z,93.70
2018-07-19T19:51:37.980Z,94.80
2018-07-19T19:54:06.440Z,94.70
2018-07-19T19:56:34.880Z,95.10
2018-07-19T19:59:03.340Z,95.40
2018-07-19T20:01:31.756Z,96.40
2018-07-19T20:04:00.289Z,97.20
2018-07-19T20:06:28.696Z,97.30
2018-07-19T20:08:57.092Z,97.60
2018-07-19T20:11:25.588Z,98.30
2018-07-19T20:13:54.077Z,99.40
2018-07-19T20:16:22.523Z,99.90
2018-07-19T20:18:50.969Z,99.90
2018-07-19T20:21:19.436Z,99.90
2018-07-19T20:23:47.843Z,99.60
2018-07-19T20:26:16.272Z,99.90
2018-07-19T20:28:44.710Z,99.90
2018-07-19T20:31:13.132Z,99.90
2018-07-19T20:33:41.553Z,99.90
2018-07-19T20:36:10.297Z,99.90
2018-07-19T20:38:38.700Z,99.90
2018-07-19T20:41:07.157Z,99.90
2018-07-19T20:43:35.616Z,99.90
2018-07-19T20:46:04.080Z,99.90
2018-07-19T20:48:32.593Z,99.90
2018-07-19T20:51:01.083Z,99.90
2018-07-19T20:53:29.504Z,99.90
2018-07-19T20:55:57.964Z,99.90
2018-07-19T20:58:26.399Z,99.90
2018-07-19T21:00:54.819Z,99.90
2018-07-19T21:03:23.218Z,99.90
2018-07-19T21:05:51.820Z,99.90
2018-07-19T21:08:20.248Z,99.90
2018-07-19T21:10:48.789Z,99.90
2018-07-19T21:13:17.186Z,99.90
2018-07-19T21:15:45.644Z,99.90
2018-07-19T21:18:14.104Z,99.90
2018-07-19T21:20:42.579Z,99.90
2018-07-19T21:23:11.256Z,99.90
2018-07-19T21:25:39.666Z,99.90
2018-07-19T21:28:08.116Z,99.90
2018-07-19T21:30:36.588Z,99.90
2018-07-19T21:33:05.049Z,99.90
2018-07-19T21:35:33.452Z,99.90
2018-07-19T21:38:01.853Z,99.90
2018-07-19T21:40:30.241Z,99.90
2018-07-19T21:42:58.842Z,99.90
2018-07-19T21:45:27.450Z,99.90
2018-07-19T21:47:55.890Z,99.90
2018-07-19T21:50:24.324Z,99.90
2018-07-19T21:52:52.756Z,99.90
2018-07-19T21:55:21.236Z,99.90
2018-07-19T21:57:49.636Z,99.90
2018-07-19T22:00:18.036Z,99.90
2018-07-19T22:02:46.513Z,99.90
2018-07-19T22:05:14.972Z,99.90
2018-07-19T22:07:43.388Z,99.90
2018-07-19T22:10:11.829Z,99.90
2018-07-19T22:12:40.307Z,99.90
2018-07-19T22:15:09.862Z,99.90
2018-07-19T22:17:38.295Z,99.90
2018-07-19T22:20:06.820Z,99.90
2018-07-19T22:22:35.241Z,99.90
2018-07-19T22:25:03.707Z,99.90
2018-07-19T22:27:32.121Z,99.90
2018-07-19T22:30:00.540Z,99.90
2018-07-19T22:32:29.009Z,99.90
2018-07-19T22:34:57.412Z,99.90
2018-07-19T22:37:25.810Z,99.90
2018-07-19T22:39:54.246Z,99.90
2018-07-19T22:42:22.667Z,99.90
2018-07-19T22:44:51.093Z,99.90
2018-07-19T22:47:19.476Z,99.90
2018-07-19T22:49:47.948Z,99.90
2018-07-19T22:52:16.459Z,99.90
2018-07-19T22:54:44.843Z,99.90
2018-07-19T22:57:13.297Z,99.90
2018-07-19T22:59:41.708Z,99.90
2018-07-19T23:02:10.347Z,99.90
2018-07-19T23:04:38.704Z,99.90
2018-07-19T23:07:07.146Z,99.90
2018-07-19T23:09:35.687Z,99.90
2018-07-19T23:12:04.164Z,99.90
2018-07-19T23:14:32.562Z,99.90
2018-07-19T23:17:00.973Z,99.90
2018-07-19T23:19:29.342Z,99.90
2018-07-19T23:21:57.756Z,99.90
2018-07-19T23:26:54.268Z,99.90
2018-07-19T23:29:22.728Z,99.90
2018-07-19T23:31:51.171Z,99.90
2018-07-19T23:34:19.620Z,99.90
2018-07-19T23:36:54.504Z,99.90
2018-07-19T23:39:27.982Z,99.90
2018-07-19T23:42:01.708Z,99.90
2018-07-19T23:44:48.784Z,99.90
2018-07-19T23:47:21.904Z,99.90
2018-07-19T23:49:50.537Z,99.90
2018-07-19T23:52:19.005Z,99.90
2018-07-19T23:54:47.440Z,99.90
2018-07-19T23:57:15.861Z,99.90
2018-07-19T23:59:44.353Z,99.90
